createdAt,value
2022-08-12T00:00:40.074Z,100566.53
2022-08-12T00:04:01.196Z,100574.88
2022-08-12T00:07:21.619Z,100578.22
2022-08-12T00:10:42.589Z,100564.03
2022-08-12T00:14:03.010Z,100570.25
2022-08-12T00:17:23.480Z,100574.88
2022-08-12T00:20:44.450Z,100579.97
2022-08-12T00:24:05.256Z,100576.69
2022-08-12T00:27:43.288Z,100574.69
2022-08-12T00:31:04.380Z,100571.00
2022-08-12T00:34:24.830Z,100579.87
2022-08-12T00:37:47.321Z,100580.34
2022-08-12T00:41:07.822Z,100579.28
2022-08-12T00:44:12.322Z,100579.81
2022-08-12T00:47:24.554Z,100563.38
2022-08-12T00:50:27.928Z,100573.53
2022-08-12T00:53:30.743Z,100575.94
2022-08-12T00:56:32.735Z,100562.00
2022-08-12T00:59:35.033Z,100577.38
2022-08-12T01:02:45.965Z,100587.59
2022-08-12T01:06:07.268Z,100584.94
2022-08-12T01:09:27.759Z,100583.00
2022-08-12T01:12:29.852Z,100576.31
2022-08-12T01:15:31.831Z,100588.22
2022-08-12T01:18:38.483Z,100572.78
2022-08-12T01:21:59.213Z,100584.47
2022-08-12T01:25:08.295Z,100579.94
2022-08-12T01:28:12.481Z,100583.47
2022-08-12T01:31:16.500Z,100579.63
2022-08-12T01:34:33.407Z,100573.88
2022-08-12T01:37:56.505Z,100570.03
2022-08-12T01:41:00.072Z,100570.16
2022-08-12T01:44:02.414Z,100563.09
2022-08-12T01:47:13.904Z,100563.09
2022-08-12T01:50:26.677Z,100566.37
2022-08-12T01:53:33.359Z,100559.41
2022-08-12T01:56:56.636Z,100561.69
2022-08-12T02:00:05.348Z,100563.47
2022-08-12T02:03:22.917Z,100553.84
2022-08-12T02:07:03.583Z,100554.72
2022-08-12T02:10:51.081Z,100552.03
2022-08-12T02:13:55.434Z,100551.66
2022-08-12T02:16:59.133Z,100547.69
2022-08-12T02:20:04.702Z,100539.31
2022-08-12T02:23:07.316Z,100536.88
2022-08-12T02:26:09.400Z,100540.38
2022-08-12T02:29:12.159Z,100543.34
2022-08-12T02:32:14.473Z,100544.91
2022-08-12T02:35:19.782Z,100531.91
2022-08-12T02:38:21.723Z,100535.09
2022-08-12T02:41:24.222Z,100532.06
2022-08-12T02:44:26.730Z,100532.44
2022-08-12T02:48:00.004Z,100531.09
2022-08-12T02:50:52.833Z,100534.63
2022-08-12T02:54:05.123Z,100527.97
2022-08-12T02:57:07.837Z,100525.28
2022-08-12T03:00:10.357Z,100521.78
2022-08-12T03:03:13.210Z,100509.72
2022-08-12T03:06:16.875Z,100523.16
2022-08-12T03:09:18.831Z,100524.25
2022-08-12T03:12:21.716Z,100515.03
2022-08-12T03:15:24.033Z,100523.81
2022-08-12T03:18:31.333Z,100527.38
2022-08-12T03:21:52.780Z,100524.63
2022-08-12T03:25:03.782Z,100519.25
2022-08-12T03:28:05.858Z,100517.38
2022-08-12T03:31:08.513Z,100527.53
2022-08-12T03:34:13.817Z,100525.37
2022-08-12T03:37:15.687Z,100524.63
2022-08-12T03:40:36.255Z,100522.78
2022-08-12T03:43:58.227Z,100528.13
2022-08-12T03:47:23.790Z,100525.59
2022-08-12T03:50:44.269Z,100520.44
2022-08-12T03:54:05.256Z,100535.59
2022-08-12T03:57:25.491Z,100531.09
2022-08-12T04:00:28.626Z,100534.63
2022-08-12T04:03:49.338Z,100542.03
2022-08-12T04:06:51.529Z,100544.06
2022-08-12T04:09:53.653Z,100542.59
2022-08-12T04:13:14.959Z,100546.25
2022-08-12T04:16:17.104Z,100544.88
2022-08-12T04:19:19.601Z,100535.47
2022-08-12T04:22:22.287Z,100544.34
2022-08-12T04:25:24.500Z,100548.16
2022-08-12T04:28:27.914Z,100545.00
2022-08-12T04:31:30.774Z,100559.97
2022-08-12T04:34:32.936Z,100543.50
2022-08-12T04:37:58.984Z,100561.78
2022-08-12T04:40:56.549Z,100553.56
2022-08-12T04:44:02.184Z,100562.00
2022-08-12T04:47:04.499Z,100565.56
2022-08-12T04:50:35.081Z,100570.66
2022-08-12T04:53:29.219Z,100563.19
2022-08-12T04:56:35.280Z,100575.81
2022-08-12T04:59:48.331Z,100576.19
2022-08-12T05:02:50.934Z,100579.97
2022-08-12T05:05:53.170Z,100577.06
2022-08-12T05:08:55.869Z,100577.16
2022-08-12T05:11:57.974Z,100572.87
2022-08-12T05:15:00.851Z,100585.25
2022-08-12T05:18:17.899Z,100560.50
2022-08-12T05:21:22.314Z,100569.84
2022-08-12T05:24:24.234Z,100571.94
2022-08-12T05:27:26.178Z,100586.00
2022-08-12T05:30:28.379Z,100574.44
2022-08-12T05:33:37.960Z,100572.06
2022-08-12T05:36:40.393Z,100563.16
2022-08-12T05:39:42.437Z,100568.41
2022-08-12T05:42:44.576Z,100574.56
2022-08-12T05:45:46.861Z,100577.09
2022-08-12T05:48:54.431Z,100576.09
2022-08-12T05:51:57.403Z,100579.84
2022-08-12T05:54:59.350Z,100568.06
2022-08-12T05:58:03.052Z,100569.44
2022-08-12T06:02:11.458Z,100567.97
2022-08-12T06:04:27.301Z,100574.41
2022-08-12T06:08:01.310Z,100561.41
2022-08-12T06:10:52.643Z,100563.72
2022-08-12T06:13:55.760Z,100562.94
2022-08-12T06:17:00.221Z,100569.25
2022-08-12T06:20:27.197Z,100565.41
2022-08-12T06:23:28.685Z,100565.69
2022-08-12T06:26:30.866Z,100562.25
2022-08-12T06:30:07.196Z,100558.00
2022-08-12T06:33:11.453Z,100565.63
2022-08-12T06:36:21.153Z,100562.19
2022-08-12T06:39:24.227Z,100561.00
2022-08-12T06:42:45.235Z,100565.28
2022-08-12T06:45:49.644Z,100559.44
2022-08-12T06:48:56.653Z,100561.63
2022-08-12T06:51:58.730Z,100569.16
2022-08-12T06:55:01.289Z,100566.37
2022-08-12T06:58:07.891Z,100563.88
2022-08-12T07:01:12.076Z,100564.91
2022-08-12T07:04:35.812Z,100565.56
2022-08-12T07:07:38.985Z,100564.66
2022-08-12T07:10:42.504Z,100559.56
2022-08-12T07:14:11.681Z,100552.03
2022-08-12T07:17:08.105Z,100558.81
2022-08-12T07:20:20.240Z,100550.72
2022-08-12T07:23:34.805Z,100558.19
2022-08-12T07:26:40.521Z,100560.16
2022-08-12T07:29:58.036Z,100560.19
2022-08-12T07:33:08.709Z,100566.53
2022-08-12T07:36:11.995Z,100564.00
2022-08-12T07:39:13.945Z,100566.97
2022-08-12T07:42:17.194Z,100563.72
2022-08-12T07:45:20.965Z,100571.50
2022-08-12T07:48:23.275Z,100567.22
2022-08-12T07:51:25.984Z,100557.78
2022-08-12T07:54:27.902Z,100547.22
2022-08-12T07:57:32.547Z,100560.19
2022-08-12T08:00:36.260Z,100560.19
2022-08-12T08:04:00.527Z,100549.50
2022-08-12T08:07:02.447Z,100543.88
2022-08-12T08:10:07.467Z,100547.75
2022-08-12T08:13:11.870Z,100546.63
2022-08-12T08:16:16.853Z,100541.22
2022-08-12T08:19:24.181Z,100542.22
2022-08-12T08:22:41.550Z,100542.34
2022-08-12T08:25:46.882Z,100541.00
2022-08-12T08:28:48.846Z,100554.53
2022-08-12T08:31:54.359Z,100536.81
2022-08-12T08:34:56.293Z,100539.41
2022-08-12T08:38:08.592Z,100523.44
2022-08-12T08:42:17.882Z,100533.69
2022-08-12T08:44:57.972Z,100530.19
2022-08-12T08:48:01.047Z,100532.44
2022-08-12T08:51:05.780Z,100527.41
2022-08-12T08:54:08.872Z,100523.19
2022-08-12T08:57:11.071Z,100514.97
2022-08-12T09:00:16.902Z,100516.50
2022-08-12T09:05:09.661Z,100521.72
2022-08-12T09:06:53.473Z,100518.53
2022-08-12T09:10:02.945Z,100512.09
2022-08-12T09:14:11.086Z,100505.16
2022-08-12T09:16:50.131Z,100489.97
2022-08-12T09:19:57.481Z,100489.19
2022-08-12T09:23:08.056Z,100486.94
2022-08-12T09:26:29.175Z,100490.50
2022-08-12T09:30:11.670Z,100497.41
2022-08-12T09:33:04.906Z,100486.53
2022-08-12T09:36:31.431Z,100484.94
2022-08-12T09:40:08.125Z,100488.56
2022-08-12T09:43:21.676Z,100492.31
2022-08-12T09:46:27.253Z,100475.72
2022-08-12T09:49:29.915Z,100467.28
2022-08-12T09:52:32.269Z,100470.56
2022-08-12T09:56:06.633Z,100466.16
2022-08-12T09:58:59.585Z,100474.09
2022-08-12T10:02:42.675Z,100456.22
2022-08-12T10:06:19.190Z,100466.59
2022-08-12T10:08:52.435Z,100459.53
2022-08-12T10:12:14.249Z,100461.91
2022-08-12T10:16:03.105Z,100461.06
2022-08-12T10:18:52.265Z,100458.75
2022-08-12T10:21:56.717Z,100451.72
2022-08-12T10:25:18.187Z,100444.97
2022-08-12T10:28:38.967Z,100429.91
2022-08-12T10:32:19.663Z,100441.03
2022-08-12T10:35:03.682Z,100438.97
2022-08-12T10:38:35.714Z,100434.06
2022-08-12T10:41:58.029Z,100441.19
2022-08-12T10:45:03.701Z,100436.66
2022-08-12T10:48:21.790Z,100449.56
2022-08-12T10:52:02.872Z,100432.25
2022-08-12T10:54:55.635Z,100433.44
2022-08-12T10:58:15.560Z,100442.84
2022-08-12T11:01:49.793Z,100435.44
2022-08-12T11:04:48.967Z,100444.84
2022-08-12T11:08:34.867Z,100445.62
2022-08-12T11:12:01.622Z,100438.84
2022-08-12T11:14:49.669Z,100452.41
2022-08-12T11:17:55.701Z,100436.59
2022-08-12T11:20:59.125Z,100445.56
2022-08-12T11:24:01.916Z,100440.28
2022-08-12T11:27:08.095Z,100446.09
2022-08-12T11:30:31.193Z,100433.09
2022-08-12T11:34:04.589Z,100437.94
2022-08-12T11:36:57.360Z,100429.75
2022-08-12T11:40:00.398Z,100428.25
2022-08-12T11:43:18.759Z,100436.72
2022-08-12T11:46:22.071Z,100419.50
2022-08-12T11:49:30.784Z,100426.63
2022-08-12T11:53:04.814Z,100412.59
2022-08-12T11:55:55.700Z,100425.62
2022-08-12T12:02:20.605Z,100420.84
2022-08-12T12:05:28.473Z,100414.38
2022-08-12T12:08:45.825Z,100410.97
2022-08-12T12:11:51.961Z,100401.34
2022-08-12T12:14:58.629Z,100405.91
2022-08-12T12:18:02.447Z,100396.09
2022-08-12T12:21:05.196Z,100394.75
2022-08-12T12:24:10.227Z,100394.72
2022-08-12T12:27:12.162Z,100391.81
2022-08-12T12:30:29.660Z,100386.59
2022-08-12T12:33:56.912Z,100373.81
2022-08-12T12:36:54.682Z,100377.28
2022-08-12T12:40:00.173Z,100358.94
2022-08-12T12:43:05.061Z,100354.44
2022-08-12T12:46:08.768Z,100349.81
2022-08-12T12:49:11.295Z,100352.94
2022-08-12T12:52:19.862Z,100356.34
2022-08-12T12:55:23.183Z,100347.81
2022-08-12T12:58:25.107Z,100332.28
2022-08-12T13:01:32.962Z,100344.22
2022-08-12T13:04:37.802Z,100341.34
2022-08-12T13:07:49.396Z,100344.47
2022-08-12T13:11:00.590Z,100327.03
2022-08-12T13:14:10.560Z,100336.50
2022-08-12T13:17:19.865Z,100331.69
2022-08-12T13:20:38.284Z,100335.13
2022-08-12T13:23:47.980Z,100319.25
2022-08-12T13:26:49.936Z,100326.19
2022-08-12T13:29:52.384Z,100332.78
2022-08-12T13:32:58.902Z,100319.28
2022-08-12T13:36:04.959Z,100322.28
2022-08-12T13:39:08.928Z,100322.81
2022-08-12T13:42:13.699Z,100319.72
2022-08-12T13:45:16.519Z,100312.06
2022-08-12T13:48:19.902Z,100306.97
2022-08-12T13:51:24.413Z,100315.59
2022-08-12T13:54:26.526Z,100321.81
2022-08-12T13:57:44.586Z,100315.37
2022-08-12T14:00:51.125Z,100310.66
2022-08-12T14:03:54.122Z,100298.72
2022-08-12T14:06:56.156Z,100291.75
2022-08-12T14:10:24.397Z,100298.91
2022-08-12T14:14:05.908Z,100296.94
2022-08-12T14:16:53.333Z,100291.03
2022-08-12T14:20:13.450Z,100290.25
2022-08-12T14:24:04.275Z,100287.00
2022-08-12T14:26:41.528Z,100299.13
2022-08-12T14:30:04.893Z,100295.84
2022-08-12T14:33:09.175Z,100287.28
2022-08-12T14:36:13.499Z,100280.56
2022-08-12T14:39:17.514Z,100280.63
2022-08-12T14:42:20.259Z,100271.00
2022-08-12T14:45:22.837Z,100267.47
2022-08-12T14:48:25.357Z,100275.81
2022-08-12T14:52:55.606Z,100269.88
2022-08-12T14:58:14.078Z,100251.03
2022-08-12T15:01:34.420Z,100256.19
2022-08-12T15:04:36.982Z,100246.87
2022-08-12T15:07:51.229Z,100250.66
2022-08-12T15:10:55.871Z,100240.47
2022-08-12T15:13:59.830Z,100238.22
2022-08-12T15:17:02.578Z,100228.06
2022-08-12T15:20:31.701Z,100224.72
2022-08-12T15:23:32.787Z,100238.75
2022-08-12T15:26:40.732Z,100228.66
2022-08-12T15:29:43.119Z,100230.06
2022-08-12T15:32:48.652Z,100218.00
2022-08-12T15:35:54.021Z,100215.38
2022-08-12T15:38:56.180Z,100227.28
2022-08-12T15:42:00.546Z,100222.91
2022-08-12T15:45:08.466Z,100210.69
2022-08-12T15:48:16.880Z,100215.78
2022-08-12T15:51:58.323Z,100216.63
2022-08-12T15:54:54.044Z,100217.66
2022-08-12T15:58:01.720Z,100213.81
2022-08-12T16:01:06.802Z,100209.72
2022-08-12T16:04:11.980Z,100206.72
2022-08-12T16:07:18.531Z,100207.50
2022-08-12T16:10:20.852Z,100221.16
2022-08-12T16:13:35.115Z,100223.09
2022-08-12T16:16:37.231Z,100225.12
2022-08-12T16:20:03.600Z,100228.72
2022-08-12T16:23:36.319Z,100214.00
2022-08-12T16:26:35.952Z,100225.59
2022-08-12T16:29:53.551Z,100220.97
2022-08-12T16:32:57.388Z,100218.72
2022-08-12T16:35:59.280Z,100208.88
2022-08-12T16:39:02.742Z,100204.31
2022-08-12T16:42:04.796Z,100192.75
2022-08-12T16:45:08.375Z,100197.47
2022-08-12T16:48:10.260Z,100195.47
2022-08-12T16:51:37.532Z,100182.38
2022-08-12T16:54:44.166Z,100205.12
2022-08-12T16:57:49.334Z,100199.34
2022-08-12T17:00:51.476Z,100191.81
2022-08-12T17:04:08.247Z,100185.50
2022-08-12T17:07:15.500Z,100181.81
2022-08-12T17:10:36.282Z,100185.94
2022-08-12T17:13:53.269Z,100174.56
2022-08-12T17:16:56.025Z,100180.91
2022-08-12T17:20:29.264Z,100195.44
2022-08-12T17:23:27.180Z,100176.25
2022-08-12T17:26:35.302Z,100179.31
2022-08-12T17:30:03.074Z,100192.53
2022-08-12T17:33:06.753Z,100193.81
2022-08-12T17:36:10.735Z,100203.09
2022-08-12T17:39:12.809Z,100197.09
2022-08-12T17:42:34.684Z,100201.88
2022-08-12T17:45:38.444Z,100192.53
2022-08-12T17:48:55.208Z,100191.12
2022-08-12T17:52:02.380Z,100199.28
2022-08-12T17:55:40.174Z,100200.84
2022-08-12T17:58:37.173Z,100189.69
2022-08-12T18:01:43.703Z,100184.22
2022-08-12T18:05:03.171Z,100202.03
2022-08-12T18:08:08.593Z,100208.56
2022-08-12T18:12:05.359Z,100205.28
2022-08-12T18:15:00.465Z,100204.59
2022-08-12T18:18:02.783Z,100210.44
2022-08-12T18:21:09.131Z,100213.00
2022-08-12T18:24:16.836Z,100188.12
2022-08-12T18:27:30.152Z,100207.47
2022-08-12T18:30:45.237Z,100205.69
2022-08-12T18:33:56.192Z,100213.44
2022-08-12T18:37:26.671Z,100216.31
2022-08-12T18:40:44.259Z,100210.09
2022-08-12T18:44:00.278Z,100214.69
2022-08-12T18:47:02.722Z,100206.75
2022-08-12T18:50:10.826Z,100211.88
2022-08-12T18:54:07.403Z,100206.72
2022-08-12T18:56:38.215Z,100216.75
2022-08-12T18:59:59.908Z,100215.28
2022-08-12T19:03:06.312Z,100211.34
2022-08-12T19:06:27.737Z,100224.31
2022-08-12T19:09:57.661Z,100223.41
2022-08-12T19:13:24.271Z,100221.28
2022-08-12T19:16:26.798Z,100211.88
2022-08-12T19:19:41.681Z,100221.31
2022-08-12T19:22:44.180Z,100215.41
2022-08-12T19:26:02.932Z,100214.47
2022-08-12T19:29:07.325Z,100225.84
2022-08-12T19:32:11.795Z,100221.56
2022-08-12T19:38:36.736Z,100225.72
2022-08-12T19:42:00.921Z,100229.75
2022-08-12T19:45:04.983Z,100234.94
2022-08-12T19:48:17.844Z,100243.25
2022-08-12T19:51:40.555Z,100237.84
2022-08-12T19:54:44.034Z,100232.34
2022-08-12T19:58:02.604Z,100229.00
2022-08-12T20:01:10.973Z,100228.25
2022-08-12T20:04:13.882Z,100220.72
2022-08-12T20:07:23.152Z,100221.62
2022-08-12T20:10:35.613Z,100223.56
2022-08-12T20:13:42.029Z,100223.47
2022-08-12T20:16:54.482Z,100222.38
2022-08-12T20:20:18.737Z,100207.88
2022-08-12T20:23:50.825Z,100219.25
2022-08-12T20:26:48.166Z,100222.06
2022-08-12T20:29:54.387Z,100211.44
2022-08-12T20:32:56.774Z,100222.06
2022-08-12T20:36:13.614Z,100226.13
2022-08-12T20:39:52.713Z,100222.75
2022-08-12T20:42:45.570Z,100219.72
2022-08-12T20:45:57.189Z,100223.94
2022-08-12T20:49:00.186Z,100225.94
2022-08-12T20:52:02.040Z,100232.84
2022-08-12T20:55:05.239Z,100230.16
2022-08-12T20:58:20.739Z,100229.16
2022-08-12T21:01:28.910Z,100221.00
2022-08-12T21:04:49.941Z,100225.59
2022-08-12T21:07:52.747Z,100216.78
2022-08-12T21:10:58.861Z,100221.62
2022-08-12T21:14:01.400Z,100227.28
2022-08-12T21:17:04.576Z,100223.59
2022-08-12T21:20:11.455Z,100232.00
2022-08-12T21:23:21.092Z,100226.09
2022-08-12T21:26:23.456Z,100233.75
2022-08-12T21:29:31.709Z,100245.56
2022-08-12T21:32:43.469Z,100252.34
2022-08-12T21:35:50.533Z,100244.28
2022-08-12T21:38:58.277Z,100262.81
2022-08-12T21:42:00.499Z,100258.47
2022-08-12T21:45:46.820Z,100241.91
2022-08-12T21:48:26.589Z,100250.75
2022-08-12T21:51:49.578Z,100264.03
2022-08-12T21:54:50.274Z,100259.72
2022-08-12T21:58:10.223Z,100255.69
2022-08-12T22:01:20.172Z,100260.22
2022-08-12T22:04:43.274Z,100273.03
2022-08-12T22:07:58.036Z,100255.38
2022-08-12T22:11:00.276Z,100267.53
2022-08-12T22:14:08.304Z,100252.09
2022-08-12T22:17:10.977Z,100269.00
2022-08-12T22:20:13.883Z,100272.97
2022-08-12T22:23:21.851Z,100247.81
2022-08-12T22:26:38.176Z,100266.31
2022-08-12T22:29:58.559Z,100258.81
2022-08-12T22:33:07.909Z,100260.56
2022-08-12T22:36:20.874Z,100259.16
2022-08-12T22:39:26.579Z,100249.75
2022-08-12T22:42:51.312Z,100245.50
2022-08-12T22:46:12.429Z,100250.75
2022-08-12T22:49:14.245Z,100257.59
2022-08-12T22:52:23.030Z,100256.22
2022-08-12T22:55:59.321Z,100260.25
2022-08-12T22:58:47.820Z,100261.63
2022-08-12T23:02:01.734Z,100255.41
2022-08-12T23:05:10.564Z,100251.06
2022-08-12T23:08:13.736Z,100254.56
2022-08-12T23:11:23.791Z,100251.63
2022-08-12T23:14:28.036Z,100249.34
2022-08-12T23:17:40.642Z,100242.12
2022-08-12T23:20:43.424Z,100228.66
2022-08-12T23:24:09.406Z,100231.16
2022-08-12T23:27:50.428Z,100225.00
2022-08-12T23:30:50.929Z,100240.44
2022-08-12T23:34:00.593Z,100229.19
2022-08-12T23:37:05.302Z,100235.59
2022-08-12T23:40:15.072Z,100225.47
2022-08-12T23:43:20.062Z,100225.25
2022-08-12T23:46:22.531Z,100225.72
2022-08-12T23:49:56.285Z,100223.72
2022-08-12T23:52:51.715Z,100224.25
2022-08-12T23:55:56.860Z,100213.91
2022-08-12T23:59:00.199Z,100208.38
